Main page
METAR-TAF:

METAR-TAF

Airports :

Alva Regional Airport

Alva, Oklahoma, United States

latitude: 36-46-23N, longitude: 098-40-12W, elevation: 1473 ft

Current weather observation

The report was made 53 minutes ago, at 21:55 UTC
Wind 17 mph from the South with gusts up to 26 mph
Temperature 100°F
Humidity 29%
Pressure 29.84 in. Hg
Visibility: 7 miles
Clear sky

METAR: KAVK 242155Z AUTO 18015G23KT 7SM CLR 38/17 A2984 RMK AO2

Time: 17:48 (22:48 UTC)


TAF: missing

Weather observations and forecasts of more than 4000 airports (METAR and TAF reports).

The available stations are represented by yellow and red dots on the map.

Hover mouse over dot to see the name of the station.

Then click to see weather observations and forecasts.

To change the map : click on the green buttons with a black cross to zoom in, on the green button with a dash to zoom out, or on the green arrows for adjacent maps.


METAR-TAF: